Fort Severn Airport
CYER : now visible

Airfield :











YOU CAN JOIN US ON...

 
LOGIN :

Register | Disclaimer

   EN    FR    IT 

 









Legend :    VFR   Marginal VFR   IFR   Intensive IFR   Very Intensive IFR
Visi :
Ceiling :
>= 8 km
>= 3000ft
5 to 8 km
1000 to 3000 ft
1500m to 5 km
500 to 1000 ft
800 to 1500m
200 to 500 ft
< 800m
< 200 ft
Symbols :   Thunderstorms  Fog  Heavy snow  Heavy precipitations  Wind > 20 kt






- Airport Elevation : 48 ft
- IATA code : YER


CYER - Fort Severn

CURRENT METAR :
  • 060200Z AUTO 31009KT 8SM -SN OVC038 M08/M09 A3010 RMK SLP194

EXPIRED METARs :
  • 060146Z AUTO 32008KT 5SM -SN OVC038 M08/M09 A3010 RMK SLP194
  • 060131Z AUTO 31008KT 5SM -SN BKN048 BKN100 OVC130 M08/M09 A3010 RMK SLP194
  • 060100Z AUTO 31006KT 8SM -SN BKN038 OVC085 M07/M08 A3009 RMK SLP193
  • 060056Z AUTO 32007KT 6SM -SN BKN036 OVC085 M07/M08 A3009 RMK SLP193
  • 060022Z AUTO 33009G15KT 5SM -SN OVC034 M07/M08 A3009 RMK SLP192
  • 060005Z AUTO 33009G17KT 6SM -SN OVC032 M07/M08 A3009 RMK SLP192
  • 052346Z AUTO 33007KT 2 1/4SM -SN FEW011 OVC028 M06/M07 A3009 RMK SLP192
  • 052326Z AUTO 33008KT 9SM -SN FEW011 SCT019 OVC028 M06/M07 A3009 RMK SLP191
  • 052300Z AUTO 33010KT 9SM -SN BKN012 OVC021 M06/M07 A3008 RMK SLP189

Expired Forecast.



MET'MAP, your aeronautical weather chart ! - Copyright ORBIFLY December 2007 - Disclaimer

ORBIFLY MET'MAP TEAM :

Programming & Development : Alexandra Zaïnal
Concept & original design : Baudouin d'Aumeries
Assistance for programming : Marc-Olivier Méhu
Technical & hardware support : Manuel Goepfert

Contact : metmap@orbifly.com




SOURCES & CREDITS :

   NOAA       Earth
Advisory